Time;durP1;ratioP1;P1;durP2;ratioP2;P2;SDS_P1;SDS_P2;PMS_P1;PMS_P2;Temp;Humidity;BMP_temperature;BMP_pressure;BME280_temperature;BME280_humidity;BME280_pressure;Samples;Min_cycle;Max_cycle;Signal;HPM_P1;HPM_P2
2021/03/05 00:02:11;;;;;;;;;;;;;;;;;;5027095;28;19982;-69
2021/03/05 00:04:37;;;;;;;;;;;;;;;;;;5040613;28;19932;-69
2021/03/05 00:07:03;;;;;;;;;;;;;;;;;;5052588;28;20016;-70
2021/03/05 00:09:29;;;;;;;;;;;;;;;;;;5052726;28;19926;-67
2021/03/05 00:11:55;;;;;;;;;;;;;;;;;;5052681;28;19926;-69
2021/03/05 00:14:21;;;;;;;;;;;;;;;;;;5052217;28;19931;-70
2021/03/05 00:16:46;;;;;;;;;;;;;;;;;;5052833;28;20406;-69
2021/03/05 00:19:12;;;;;;;;;;;;;;;;;;5052560;28;20272;-68
2021/03/05 00:21:38;;;;;;;;;;;;;;;;;;5052642;28;19953;-69
2021/03/05 00:24:04;;;;;;;;;;;;;;;;;;5051915;28;19954;-69
2021/03/05 00:26:30;;;;;;;;;;;;;;;;;;5052398;28;19932;-68
2021/03/05 00:28:56;;;;;;;;;;;;;;;;;;5051992;28;20676;-70
2021/03/05 00:31:21;;;;;;;;;;;;;;;;;;5052342;28;20323;-68
2021/03/05 00:33:47;;;;;;;;;;;;;;;;;;5051878;28;19950;-68
2021/03/05 00:36:13;;;;;;;;;;;;;;;;;;5052784;28;19935;-69
2021/03/05 00:38:39;;;;;;;;;;;;;;;;;;5038590;28;19954;-70
2021/03/05 00:41:05;;;;;;;;;;;;;;;;;;5041329;28;20420;-69
2021/03/05 00:43:31;;;;;;;;;;;;;;;;;;5051499;28;19926;-69
2021/03/05 00:45:57;;;;;;;;;;;;;;;;;;5052425;28;19969;-69
2021/03/05 00:48:22;;;;;;;;;;;;;;;;;;5052029;28;19945;-69
2021/03/05 00:50:48;;;;;;;;;;;;;;;;;;5051916;28;19936;-69
2021/03/05 00:53:14;;;;;;;;;;;;;;;;;;5051477;28;20540;-69
2021/03/05 00:55:40;;;;;;;;;;;;;;;;;;5051922;28;20358;-69
2021/03/05 00:58:06;;;;;;;;;;;;;;;;;;5051557;28;19953;-70
2021/03/05 01:00:32;;;;;;;;;;;;;;;;;;5052206;28;19933;-69
2021/03/05 01:02:58;;;;;;;;;;;;;;;;;;5051123;28;20312;-69
2021/03/05 01:05:23;;;;;;;;;;;;;;;;;;5051915;28;19931;-69
2021/03/05 01:07:49;;;;;;;;;;;;;;;;;;5051857;28;19950;-69
2021/03/05 01:10:15;;;;;;;;;;;;;;;;;;5051479;28;19933;-68
2021/03/05 01:12:41;;;;;;;;;;;;;;;;;;5051303;28;20521;-69
2021/03/05 01:15:07;;;;;;;;;;;;;;;;;;5051816;28;19931;-67
2021/03/05 01:17:33;;;;;;;;;;;;;;;;;;5051557;28;20008;-69
2021/03/05 01:19:58;;;;;;;;;;;;;;;;;;5051641;28;19930;-69
2021/03/05 01:22:24;;;;;;;;;;;;;;;;;;5051935;28;19952;-68
2021/03/05 01:24:50;;;;;;;;;;;;;;;;;;5050660;28;20364;-69
2021/03/05 01:27:16;;;;;;;;;;;;;;;;;;5051118;28;19936;-68
2021/03/05 01:29:42;;;;;;;;;;;;;;;;;;5025598;28;19980;-69
2021/03/05 01:32:08;;;;;;;;;;;;;;;;;;5050978;28;19929;-70
2021/03/05 01:34:33;;;;;;;;;;;;;;;;;;5048612;28;20571;-70
2021/03/05 01:36:59;;;;;;;;;;;;;;;;;;5049630;28;19930;-69
2021/03/05 01:39:25;;;;;;;;;;;;;;;;;;5029509;28;19948;-70
2021/03/05 01:41:51;;;;;;;;;;;;;;;;;;5046073;28;19958;-70
2021/03/05 01:44:17;;;;;;;;;;;;;;;;;;5049112;28;19962;-69
2021/03/05 01:46:43;;;;;;;;;;;;;;;;;;5049382;28;19930;-69
2021/03/05 01:49:08;;;;;;;;;;;;;;;;;;5049324;28;19946;-68
2021/03/05 01:51:34;;;;;;;;;;;;;;;;;;5050302;28;19936;-70
2021/03/05 01:54:00;;;;;;;;;;;;;;;;;;5050182;28;19932;-69
2021/03/05 01:56:26;;;;;;;;;;;;;;;;;;5050694;28;19933;-69
2021/03/05 01:58:52;;;;;;;;;;;;;;;;;;5050362;28;19959;-70
2021/03/05 02:01:18;;;;;;;;;;;;;;;;;;5050666;28;19988;-69
2021/03/05 02:03:44;;;;;;;;;;;;;;;;;;5050126;28;19927;-68
2021/03/05 02:06:09;;;;;;;;;;;;;;;;;;5050853;28;19932;-69
2021/03/05 02:08:35;;;;;;;;;;;;;;;;;;5050329;28;19945;-70
2021/03/05 02:11:01;;;;;;;;;;;;;;;;;;5050339;28;19941;-70
2021/03/05 02:13:27;;;;;;;;;;;;;;;;;;5049948;28;20414;-69
2021/03/05 02:15:53;;;;;;;;;;;;;;;;;;5051204;28;19932;-68
2021/03/05 02:18:19;;;;;;;;;;;;;;;;;;5050720;28;19952;-69
2021/03/05 02:20:44;;;;;;;;;;;;;;;;;;5050422;28;20306;-69
2021/03/05 02:23:10;;;;;;;;;;;;;;;;;;5050337;28;19932;-69
2021/03/05 02:25:36;;;;;;;;;;;;;;;;;;5050486;28;20405;-70
2021/03/05 02:28:02;;;;;;;;;;;;;;;;;;5050275;28;19946;-68
2021/03/05 02:30:28;;;;;;;;;;;;;;;;;;5050152;28;19930;-69
2021/03/05 02:32:54;;;;;;;;;;;;;;;;;;5050525;28;19929;-67
2021/03/05 02:35:20;;;;;;;;;;;;;;;;;;5050002;28;19925;-70
2021/03/05 02:37:45;;;;;;;;;;;;;;;;;;5049456;28;20311;-70
2021/03/05 02:40:11;;;;;;;;;;;;;;;;;;5050029;28;19960;-70
2021/03/05 02:42:37;;;;;;;;;;;;;;;;;;5052117;28;20004;-68
2021/03/05 02:45:03;;;;;;;;;;;;;;;;;;5053807;28;19926;-69
2021/03/05 02:47:29;;;;;;;;;;;;;;;;;;5054134;28;19948;-68
2021/03/05 02:49:55;;;;;;;;;;;;;;;;;;5054270;28;19928;-69
2021/03/05 02:52:21;;;;;;;;;;;;;;;;;;5054544;28;19929;-68
2021/03/05 02:54:46;;;;;;;;;;;;;;;;;;5054452;28;19937;-70
2021/03/05 02:57:12;;;;;;;;;;;;;;;;;;5054277;28;19936;-71
2021/03/05 02:59:38;;;;;;;;;;;;;;;;;;5054035;28;20408;-68
2021/03/05 03:02:04;;;;;;;;;;;;;;;;;;5054032;28;20018;-70
2021/03/05 03:04:30;;;;;;;;;;;;;;;;;;5038131;28;19931;-69
2021/03/05 03:06:56;;;;;;;;;;;;;;;;;;5025298;28;19973;-70
2021/03/05 03:09:21;;;;;;;;;;;;;;;;;;5033790;28;19958;-70
2021/03/05 03:11:47;;;;;;;;;;;;;;;;;;5050984;28;19971;-68
2021/03/05 03:14:13;;;;;;;;;;;;;;;;;;5052778;28;20405;-70
2021/03/05 03:16:39;;;;;;;;;;;;;;;;;;5053834;28;20386;-68
2021/03/05 03:19:05;;;;;;;;;;;;;;;;;;5053441;28;20049;-69
2021/03/05 03:21:31;;;;;;;;;;;;;;;;;;5040432;28;19947;-69
2021/03/05 03:23:56;;;;;;;;;;;;;;;;;;5033283;28;19976;-69
2021/03/05 03:26:22;;;;;;;;;;;;;;;;;;5034001;28;19979;-69
2021/03/05 03:28:48;;;;;;;;;;;;;;;;;;5052959;28;19955;-67
2021/03/05 03:31:16;;;;;;;;;;;;;;;;;;5053337;28;19932;-69
2021/03/05 03:33:42;;;;;;;;;;;;;;;;;;5052510;28;19987;-69
2021/03/05 03:36:08;;;;;;;;;;;;;;;;;;5052215;28;19933;-69
2021/03/05 03:38:34;;;;;;;;;;;;;;;;;;5040759;28;20433;-69
2021/03/05 03:40:59;;;;;;;;;;;;;;;;;;5043712;28;19957;-70
2021/03/05 03:43:25;;;;;;;;;;;;;;;;;;5052373;28;19941;-69
2021/03/05 03:45:51;;;;;;;;;;;;;;;;;;5053309;28;19935;-69
2021/03/05 03:48:17;;;;;;;;;;;;;;;;;;5053311;28;19987;-71
2021/03/05 03:50:43;;;;;;;;;;;;;;;;;;5052884;28;20416;-69
2021/03/05 03:53:09;;;;;;;;;;;;;;;;;;5052244;28;20330;-70
2021/03/05 03:55:34;;;;;;;;;;;;;;;;;;5052999;28;20400;-70
2021/03/05 03:58:01;;;;;;;;;;;;;;;;;;5053034;28;20023;-69
2021/03/05 04:00:26;;;;;;;;;;;;;;;;;;5052692;28;19936;-70
2021/03/05 04:02:52;;;;;;;;;;;;;;;;;;5052919;28;20428;-69
2021/03/05 04:05:18;;;;;;;;;;;;;;;;;;5052058;28;20027;-70
2021/03/05 04:07:44;;;;;;;;;;;;;;;;;;5053124;28;20001;-69
2021/03/05 04:10:10;;;;;;;;;;;;;;;;;;5052580;28;19956;-69
2021/03/05 04:12:36;;;;;;;;;;;;;;;;;;5052951;28;19926;-70
2021/03/05 04:15:02;;;;;;;;;;;;;;;;;;5051959;28;19985;-69
2021/03/05 04:20:00;;;;;;;;;;;;;;;;;;5070554;22;20019;-70
2021/03/05 04:22:26;;;;;;;;;;;;;;;;;;5053042;28;20010;-70
2021/03/05 04:24:52;;;;;;;;;;;;;;;;;;5052487;28;19954;-69
2021/03/05 04:27:18;;;;;;;;;;;;;;;;;;5052032;28;19971;-69
2021/03/05 04:29:44;;;;;;;;;;;;;;;;;;5030727;28;19954;-69
2021/03/05 04:32:10;;;;;;;;;;;;;;;;;;5044163;28;19933;-69
2021/03/05 04:34:35;;;;;;;;;;;;;;;;;;5052306;28;20028;-70
2021/03/05 04:37:01;;;;;;;;;;;;;;;;;;5052640;28;19927;-69
2021/03/05 04:39:27;;;;;;;;;;;;;;;;;;5032823;28;19991;-70
2021/03/05 04:41:53;;;;;;;;;;;;;;;;;;5048932;28;19950;-69
2021/03/05 04:44:19;;;;;;;;;;;;;;;;;;5052334;28;20041;-70
2021/03/05 04:46:45;;;;;;;;;;;;;;;;;;5052482;28;19935;-70
2021/03/05 04:49:11;;;;;;;;;;;;;;;;;;5052177;28;20432;-70
2021/03/05 04:51:37;;;;;;;;;;;;;;;;;;5052136;28;19974;-70
2021/03/05 04:54:03;;;;;;;;;;;;;;;;;;5051799;28;19934;-70
2021/03/05 04:56:28;;;;;;;;;;;;;;;;;;5052576;28;19941;-69
2021/03/05 04:58:54;;;;;;;;;;;;;;;;;;5052135;28;19957;-71
2021/03/05 05:01:20;;;;;;;;;;;;;;;;;;5051859;28;19985;-69
2021/03/05 05:03:46;;;;;;;;;;;;;;;;;;5051443;28;19947;-70
2021/03/05 05:06:12;;;;;;;;;;;;;;;;;;5035924;28;20444;-70
2021/03/05 05:08:38;;;;;;;;;;;;;;;;;;5042164;28;20052;-70
2021/03/05 05:11:04;;;;;;;;;;;;;;;;;;5021961;28;19930;-69
2021/03/05 05:13:29;;;;;;;;;;;;;;;;;;5023192;28;19965;-69
2021/03/05 05:15:55;;;;;;;;;;;;;;;;;;5022297;28;19929;-70
2021/03/05 05:18:21;;;;;;;;;;;;;;;;;;5024664;28;20484;-70
2021/03/05 05:20:47;;;;;;;;;;;;;;;;;;5025573;28;19926;-69
2021/03/05 05:23:13;;;;;;;;;;;;;;;;;;5021524;28;19923;-70
2021/03/05 05:25:39;;;;;;;;;;;;;;;;;;5021947;28;19928;-70
2021/03/05 05:28:04;;;;;;;;;;;;;;;;;;5027140;28;20329;-69
2021/03/05 05:30:30;;;;;;;;;;;;;;;;;;5022702;28;19926;-69
2021/03/05 05:32:56;;;;;;;;;;;;;;;;;;5020574;28;19971;-70
2021/03/05 05:35:22;;;;;;;;;;;;;;;;;;5025964;28;19933;-70
2021/03/05 05:37:48;;;;;;;;;;;;;;;;;;5026123;28;19929;-70
2021/03/05 05:40:14;;;;;;;;;;;;;;;;;;5023962;28;19925;-70
2021/03/05 05:42:40;;;;;;;;;;;;;;;;;;5021346;28;20358;-70
2021/03/05 05:45:06;;;;;;;;;;;;;;;;;;5018458;28;19933;-70
2021/03/05 05:47:31;;;;;;;;;;;;;;;;;;5027123;28;19982;-70
2021/03/05 05:49:57;;;;;;;;;;;;;;;;;;5019521;28;19955;-69
2021/03/05 05:52:23;;;;;;;;;;;;;;;;;;5051458;28;19926;-69
2021/03/05 05:54:49;;;;;;;;;;;;;;;;;;5022397;28;19934;-70
2021/03/05 05:57:15;;;;;;;;;;;;;;;;;;5016768;28;20253;-70
2021/03/05 05:59:41;;;;;;;;;;;;;;;;;;5025539;28;19949;-69
2021/03/05 06:02:06;;;;;;;;;;;;;;;;;;5029298;28;20418;-70
2021/03/05 06:04:32;;;;;;;;;;;;;;;;;;5022746;28;19938;-70
2021/03/05 06:06:58;;;;;;;;;;;;;;;;;;5021642;28;20007;-69
2021/03/05 06:09:24;;;;;;;;;;;;;;;;;;5022503;28;19936;-70
2021/03/05 06:11:50;;;;;;;;;;;;;;;;;;5025283;28;19928;-70
2021/03/05 06:14:17;;;;;;;;;;;;;;;;;;5021104;28;19923;-70
2021/03/05 06:16:43;;;;;;;;;;;;;;;;;;5021162;28;19921;-71
2021/03/05 06:19:08;;;;;;;;;;;;;;;;;;5027142;28;20053;-70
2021/03/05 06:21:34;;;;;;;;;;;;;;;;;;5025227;28;19956;-69
2021/03/05 06:24:01;;;;;;;;;;;;;;;;;;5021573;28;19939;-70
2021/03/05 06:26:27;;;;;;;;;;;;;;;;;;5023721;28;19927;-70
2021/03/05 06:28:53;;;;;;;;;;;;;;;;;;5025215;28;19940;-71
2021/03/05 06:31:21;;;;;;;;;;;;;;;;;;5029722;28;20027;-70
2021/03/05 06:33:47;;;;;;;;;;;;;;;;;;5019567;28;20322;-69
2021/03/05 06:36:13;;;;;;;;;;;;;;;;;;5019312;28;19937;-70
2021/03/05 06:38:39;;;;;;;;;;;;;;;;;;5024381;28;19999;-71
2021/03/05 06:41:05;;;;;;;;;;;;;;;;;;5024873;28;20002;-69
2021/03/05 06:43:31;;;;;;;;;;;;;;;;;;5023178;28;19961;-70
2021/03/05 06:45:57;;;;;;;;;;;;;;;;;;5021506;28;19920;-70
2021/03/05 06:48:23;;;;;;;;;;;;;;;;;;5030663;28;20467;-71
2021/03/05 06:50:49;;;;;;;;;;;;;;;;;;5025038;28;19932;-70
2021/03/05 06:53:14;;;;;;;;;;;;;;;;;;5021994;28;20694;-70
2021/03/05 06:55:40;;;;;;;;;;;;;;;;;;5026675;28;19929;-70
2021/03/05 06:58:06;;;;;;;;;;;;;;;;;;5020699;28;19950;-71
2021/03/05 07:00:32;;;;;;;;;;;;;;;;;;5021396;28;19930;-70
2021/03/05 07:02:58;;;;;;;;;;;;;;;;;;5017503;28;19947;-67
2021/03/05 07:05:24;;;;;;;;;;;;;;;;;;5018285;28;20429;-70
2021/03/05 07:07:50;;;;;;;;;;;;;;;;;;5015739;28;20329;-71
2021/03/05 07:10:16;;;;;;;;;;;;;;;;;;5020928;28;20534;-70
2021/03/05 07:12:42;;;;;;;;;;;;;;;;;;5020850;28;20027;-70
2021/03/05 07:15:10;;;;;;;;;;;;;;;;;;5021485;28;20029;-70
2021/03/05 07:17:36;;;;;;;;;;;;;;;;;;5020413;28;19959;-68
2021/03/05 07:20:02;;;;;;;;;;;;;;;;;;5021728;28;19988;-69
2021/03/05 07:22:27;;;;;;;;;;;;;;;;;;5021129;28;19961;-69
2021/03/05 07:24:53;;;;;;;;;;;;;;;;;;5017728;28;19937;-71
2021/03/05 07:27:19;;;;;;;;;;;;;;;;;;5026427;28;20021;-71
2021/03/05 07:29:45;;;;;;;;;;;;;;;;;;5032102;28;20374;-70
2021/03/05 07:32:11;;;;;;;;;;;;;;;;;;5022747;28;20015;-71
2021/03/05 07:34:37;;;;;;;;;;;;;;;;;;5025788;28;19929;-69
2021/03/05 07:37:03;;;;;;;;;;;;;;;;;;5036981;28;19929;-69
2021/03/05 07:39:29;;;;;;;;;;;;;;;;;;5050075;28;20410;-70
2021/03/05 07:41:54;;;;;;;;;;;;;;;;;;5054070;28;20043;-70
2021/03/05 07:44:20;;;;;;;;;;;;;;;;;;5052969;28;19991;-71
2021/03/05 07:46:46;;;;;;;;;;;;;;;;;;5053850;28;20011;-69
2021/03/05 07:49:12;;;;;;;;;;;;;;;;;;5053117;28;19996;-70
2021/03/05 07:51:38;;;;;;;;;;;;;;;;;;5053871;28;19978;-70
2021/03/05 07:54:05;;;;;;;;;;;;;;;;;;5051420;28;19930;-67
2021/03/05 07:56:31;;;;;;;;;;;;;;;;;;5027198;28;19921;-69
2021/03/05 07:58:56;;;;;;;;;;;;;;;;;;5029346;28;19945;-69
2021/03/05 08:01:22;;;;;;;;;;;;;;;;;;5018141;28;19958;-70
2021/03/05 08:03:48;;;;;;;;;;;;;;;;;;5020726;28;19931;-69
2021/03/05 08:06:14;;;;;;;;;;;;;;;;;;5017333;28;20380;-69
2021/03/05 08:08:40;;;;;;;;;;;;;;;;;;5016542;28;19946;-70
2021/03/05 08:11:06;;;;;;;;;;;;;;;;;;5029926;28;19938;-70
2021/03/05 08:13:34;;;;;;;;;;;;;;;;;;5035901;28;19935;-70
2021/03/05 08:16:00;;;;;;;;;;;;;;;;;;5050565;28;19931;-69
2021/03/05 08:18:26;;;;;;;;;;;;;;;;;;5027378;28;19963;-71
2021/03/05 08:20:52;;;;;;;;;;;;;;;;;;5048482;28;20011;-68
2021/03/05 08:23:18;;;;;;;;;;;;;;;;;;5052009;28;20285;-70
2021/03/05 08:25:44;;;;;;;;;;;;;;;;;;5053570;28;19924;-68
2021/03/05 08:28:10;;;;;;;;;;;;;;;;;;5053201;28;19995;-69
2021/03/05 08:30:36;;;;;;;;;;;;;;;;;;5052866;28;19937;-68
2021/03/05 08:33:02;;;;;;;;;;;;;;;;;;5051940;28;20025;-70
2021/03/05 08:35:28;;;;;;;;;;;;;;;;;;5052867;28;19932;-68
2021/03/05 08:37:54;;;;;;;;;;;;;;;;;;5045937;28;20403;-70
2021/03/05 08:40:22;;;;;;;;;;;;;;;;;;5025055;28;19932;-71
2021/03/05 08:42:48;;;;;;;;;;;;;;;;;;5021983;28;20432;-71
2021/03/05 08:45:14;;;;;;;;;;;;;;;;;;5018462;28;19988;-71
2021/03/05 08:47:39;;;;;;;;;;;;;;;;;;5023309;28;19960;-71
2021/03/05 08:50:05;;;;;;;;;;;;;;;;;;5024949;28;19916;-71
2021/03/05 08:52:31;;;;;;;;;;;;;;;;;;5020116;28;19957;-70
2021/03/05 08:54:57;;;;;;;;;;;;;;;;;;5027645;28;20257;-71
2021/03/05 08:57:23;;;;;;;;;;;;;;;;;;5031794;28;19909;-70
2021/03/05 08:59:51;;;;;;;1.20;1.10;;;;;;;;;;5019369;28;19929;-72
2021/03/05 09:02:17;;;;;;;8.73;8.20;;;;;;;;;;5018994;28;20197;-70
2021/03/05 09:04:43;;;;;;;1.33;1.10;;;;;;;;;;5021786;28;20394;-71
2021/03/05 09:07:13;;;;;;;1.10;0.77;;;;;;;;;;5018056;28;22181;-71
2021/03/05 09:09:39;;;;;;;575.60;539.83;;;;;;;;;;5019165;28;20934;-70
2021/03/05 09:12:13;;;;;;;150.20;141.17;;;;;;;;;;5013709;28;20462;-70
2021/03/05 09:14:39;;;;;;;2.30;0.93;;;;;;;;;;5016325;28;20391;-69
2021/03/05 09:17:06;;;;;;;4.93;1.53;;;;;;;;;;5022417;28;20793;-69
2021/03/05 09:19:32;;;;;;;195.43;183.00;;;;;;;;;;5045502;28;20496;-69
2021/03/05 09:22:18;;;;;;;0.83;0.73;;;;;;;;;;5032730;28;20426;-70
2021/03/05 09:24:47;;;;;;;0.80;0.60;;;;;;;;;;5013156;28;20911;-71
2021/03/05 09:27:20;;;;;;;0.77;0.63;;;;;;;;;;5047614;28;20451;-71
2021/03/05 09:29:46;;;;;;;1.00;0.90;;;;;;;;;;5026253;28;20770;-70
2021/03/05 09:32:12;;;;;;;11.93;11.33;;;;;;;;;;5025343;28;20459;-71
2021/03/05 09:34:51;;;;;;;0.87;0.53;;;;;;;;;;5028363;28;20881;-70
2021/03/05 09:37:18;;;;;;;0.87;0.70;;;;;;;;;;5037434;28;20415;-70
2021/03/05 09:39:45;;;;;;;0.87;0.87;;;;;;;;;;5048947;28;20526;-70
2021/03/05 09:42:11;;;;;;;1.30;1.00;;;;;;;;;;5050935;28;20421;-70
2021/03/05 09:44:41;;;;;;;1.10;0.70;;;;;;;;;;5047921;28;20502;-72
2021/03/05 09:47:07;;;;;;;838.57;762.27;;;;;;;;;;5041559;28;20410;-71
2021/03/05 09:49:33;;;;;;;878.53;804.10;;;;;;;;;;5050967;28;20439;-71
2021/03/05 09:52:00;;;;;;;954.83;876.93;;;;;;;;;;5050475;28;20411;-71
2021/03/05 09:54:25;;;;;;;;;;;;;;;;;;5050326;28;20510;-70
2021/03/05 09:56:52;;;;;;;;;;;;;;;;;;5029111;28;20425;-72
2021/03/05 09:59:18;;;;;;;;;;;;;;;;;;5019499;28;20011;-71
2021/03/05 10:01:44;;;;;;;;;;;;;;;;;;5025529;28;19940;-71
2021/03/05 10:04:10;;;;;;;;;;;;;;;;;;5027112;28;19929;-71
2021/03/05 10:06:36;;;;;;;;;;;;;;;;;;5050314;28;19935;-71
2021/03/05 10:09:01;;;;;;;;;;;;;;;;;;5051083;28;19953;-71
2021/03/05 10:11:27;;;;;;;;;;;;;;;;;;5051389;28;19932;-70
2021/03/05 10:13:54;;;;;;;;;;;;;;;;;;5050603;28;19947;-72
2021/03/05 10:16:20;;;;;;;;;;;;;;;;;;5049108;28;20403;-72
2021/03/05 10:18:46;;;;;;;;;;;;;;;;;;5048622;22;19953;-71
2021/03/05 10:21:12;;;;;;;;;;;;;;;;;;5037431;28;20297;-71
2021/03/05 10:23:38;;;;;;;;;;;;;;;;;;5048055;28;19942;-69
2021/03/05 10:26:04;;;;;;;;;;;;;;;;;;5048520;28;20080;-71
2021/03/05 10:28:30;;;;;;;;;;;;;;;;;;5043108;28;20038;-71
2021/03/05 10:30:55;;;;;;;;;;;;;;;;;;5042953;28;19937;-71
2021/03/05 10:33:21;;;;;;;;;;;;;;;;;;5036775;28;19935;-72
2021/03/05 10:35:47;;;;;;;;;;;;;;;;;;5038250;28;19926;-71
2021/03/05 10:38:14;;;;;;;0.80;0.50;;;;;;;;;;5051728;28;20418;-71
2021/03/05 10:40:40;;;;;;;0.80;0.50;;;;;;;;;;5035592;28;20538;-71
2021/03/05 10:43:07;;;;;;;0.70;0.40;;;;;;;;;;5039912;28;20406;-70
2021/03/05 10:45:33;;;;;;;0.70;0.40;;;;;;;;;;5037510;28;20397;-69
2021/03/05 10:48:00;;;;;;;0.80;0.53;;;;;;;;;;5035693;28;20407;-70
2021/03/05 10:50:26;;;;;;;0.70;0.50;;;;;;;;;;5040220;28;20264;-72
2021/03/05 10:52:52;;;;;;;2.93;0.50;;;;;;;;;;5032930;28;20470;-72
2021/03/05 10:55:18;;;;;;;0.70;0.50;;;;;;;;;;5026991;28;20404;-72
2021/03/05 10:57:44;;;;;;;0.73;0.57;;;;;;;;;;5029965;28;20420;-73
2021/03/05 11:00:10;;;;;;;0.80;0.50;;;;;;;;;;5030227;28;20220;-71
2021/03/05 11:02:36;;;;;;;0.80;0.60;;;;;;;;;;5029690;28;20491;-72
2021/03/05 11:05:02;;;;;;;0.77;0.57;;;;;;;;;;5030702;28;21005;-72
2021/03/05 11:07:28;;;;;;;0.80;0.50;;;;;;;;;;5033818;28;20852;-71
2021/03/05 11:09:54;;;;;;;0.73;0.50;;;;;;;;;;5029783;28;20716;-69
2021/03/05 11:12:20;;;;;;;1.13;0.70;;;;;;;;;;5039110;28;20663;-71
2021/03/05 11:14:46;;;;;;;0.90;0.50;;;;;;;;;;5038161;28;20438;-71
2021/03/05 11:17:12;;;;;;;0.80;0.60;;;;;;;;;;5037979;28;20902;-72
2021/03/05 11:19:38;;;;;;;0.80;0.60;;;;;;;;;;5015521;28;20460;-70
2021/03/05 11:22:04;;;;;;;0.90;0.60;;;;;;;;;;5033566;28;20942;-70
2021/03/05 11:24:30;;;;;;;0.70;0.40;;;;;;;;;;5030658;28;20416;-73
2021/03/05 11:26:56;;;;;;;0.70;0.40;;;;;;;;;;5031584;28;20182;-70
2021/03/05 11:29:22;;;;;;;1.00;0.50;;;;;;;;;;5026990;28;20438;-71
2021/03/05 11:31:48;;;;;;;2.47;0.70;;;;;;;;;;5022484;28;20503;-71
2021/03/05 11:34:14;;;;;;;0.70;0.50;;;;;;;;;;5027520;28;20477;-70
2021/03/05 11:36:42;;;;;;;0.70;0.47;;;;;;;;;;5032599;28;20493;-71
2021/03/05 11:39:07;;;;;;;0.70;0.47;;;;;;;;;;5036794;28;20431;-69
2021/03/05 11:41:33;;;;;;;0.80;0.50;;;;;;;;;;5041778;28;20453;-70
2021/03/05 11:44:02;;;;;;;1.10;0.50;;;;;;;;;;5036551;28;20419;-71
2021/03/05 11:46:28;;;;;;;0.93;0.87;;;;;;;;;;5039818;28;20286;-71
2021/03/05 11:48:54;;;;;;;0.77;0.60;;;;;;;;;;5035955;28;20451;-72
2021/03/05 11:51:20;;;;;;;0.70;0.50;;;;;;;;;;5038608;28;20227;-71
2021/03/05 11:53:46;;;;;;;0.70;0.50;;;;;;;;;;5036924;28;20225;-73
2021/03/05 11:56:13;;;;;;;1.53;0.60;;;;;;;;;;5040893;28;20402;-71
2021/03/05 11:58:39;;;;;;;0.70;0.40;;;;;;;;;;5014835;28;20439;-71
2021/03/05 12:01:05;;;;;;;0.70;0.50;;;;;;;;;;5031353;28;20423;-72
2021/03/05 12:03:31;;;;;;;0.70;0.50;;;;;;;;;;5034012;28;21069;-71
2021/03/05 12:05:57;;;;;;;3.67;0.80;;;;;;;;;;5030893;28;20412;-70
2021/03/05 12:08:23;;;;;;;0.70;0.40;;;;;;;;;;5032667;28;22272;-71
2021/03/05 12:10:50;;;;;;;1.20;1.10;;;;;;;;;;5035637;28;20181;-73
2021/03/05 12:13:16;;;;;;;0.70;0.50;;;;;;;;;;5038211;28;20855;-72
2021/03/05 12:15:42;;;;;;;1.57;0.50;;;;;;;;;;5035497;28;20419;-72
2021/03/05 12:18:09;;;;;;;1.63;0.70;;;;;;;;;;5036308;28;20438;-70
2021/03/05 12:20:35;;;;;;;0.70;0.50;;;;;;;;;;5035674;28;20455;-70
2021/03/05 12:23:01;;;;;;;0.70;0.50;;;;;;;;;;5041532;28;20569;-70
2021/03/05 12:25:27;;;;;;;2.97;0.80;;;;;;;;;;5029006;28;20850;-72
2021/03/05 12:27:53;;;;;;;0.70;0.50;;;;;;;;;;5035578;28;20491;-71
2021/03/05 12:30:20;;;;;;;0.80;0.60;;;;;;;;;;5033839;28;20474;-71
2021/03/05 12:32:46;;;;;;;10.33;0.73;;;;;;;;;;5041114;28;20750;-72
2021/03/05 12:35:12;;;;;;;0.70;0.50;;;;;;;;;;5037144;28;20465;-70
2021/03/05 12:37:38;;;;;;;200.30;179.30;;;;;;;;;;5030957;28;20467;-69
2021/03/05 12:40:06;;;;;;;156.13;136.10;;;;;;;;;;5024640;28;20216;-71
2021/03/05 12:42:32;;;;;;;763.70;669.90;;;;;;;;;;5029778;28;20458;-69
2021/03/05 12:44:58;;;;;;;717.33;641.60;;;;;;;;;;5037895;28;20411;-73
2021/03/05 12:47:24;;;;;;;1.00;0.67;;;;;;;;;;5031824;28;20499;-70
2021/03/05 12:49:50;;;;;;;0.70;0.53;;;;;;;;;;5029142;28;20449;-71
2021/03/05 12:52:16;;;;;;;0.70;0.50;;;;;;;;;;5034687;28;20422;-72
2021/03/05 12:54:42;;;;;;;0.80;0.53;;;;;;;;;;5037033;28;20421;-70
2021/03/05 12:57:08;;;;;;;1.27;0.93;;;;;;;;;;5038138;28;20404;-69
2021/03/05 12:59:34;;;;;;;0.70;0.40;;;;;;;;;;5039478;28;20449;-71
2021/03/05 13:02:00;;;;;;;0.70;0.50;;;;;;;;;;5035716;28;20463;-71
2021/03/05 13:04:26;;;;;;;0.80;0.60;;;;;;;;;;5034866;28;20657;-71
2021/03/05 13:06:52;;;;;;;0.70;0.60;;;;;;;;;;5033570;28;20443;-72
2021/03/05 13:09:17;;;;;;;1.53;0.63;;;;;;;;;;5031942;28;20950;-71
2021/03/05 13:11:43;;;;;;;0.70;0.50;;;;;;;;;;5028880;28;20485;-71
2021/03/05 13:14:09;;;;;;;0.90;0.50;;;;;;;;;;5032971;28;20416;-71
2021/03/05 13:16:35;;;;;;;6.43;4.80;;;;;;;;;;5036247;28;20407;-72
2021/03/05 13:19:03;;;;;;;0.70;0.50;;;;;;;;;;5035978;28;20440;-71
2021/03/05 13:21:29;;;;;;;2.50;0.70;;;;;;;;;;5028936;28;20497;-71
2021/03/05 13:23:55;;;;;;;4.10;0.60;;;;;;;;;;5028366;28;20444;-71
2021/03/05 13:26:21;;;;;;;0.70;0.57;;;;;;;;;;5028619;28;20419;-72
2021/03/05 13:28:48;;;;;;;0.70;0.50;;;;;;;;;;5029225;28;20432;-73
2021/03/05 13:31:14;;;;;;;0.80;0.50;;;;;;;;;;5042059;28;20445;-70
2021/03/05 13:33:40;;;;;;;0.70;0.50;;;;;;;;;;5046019;28;20412;-72
2021/03/05 13:36:06;;;;;;;0.80;0.53;;;;;;;;;;5028776;28;20778;-71
2021/03/05 13:38:32;;;;;;;0.70;0.50;;;;;;;;;;5038976;28;20469;-71
2021/03/05 13:41:00;;;;;;;7.50;0.87;;;;;;;;;;5036084;28;20891;-71
2021/03/05 13:43:26;;;;;;;2.10;0.63;;;;;;;;;;5031658;28;20434;-70
2021/03/05 13:45:52;;;;;;;5.73;1.57;;;;;;;;;;5038233;28;20373;-72
2021/03/05 13:48:18;;;;;;;1.63;0.67;;;;;;;;;;5036091;28;20386;-71
2021/03/05 13:50:44;;;;;;;0.80;0.60;;;;;;;;;;5038198;28;20419;-71
2021/03/05 13:53:11;;;;;;;64.13;55.70;;;;;;;;;;5030504;28;20488;-70
2021/03/05 13:55:37;;;;;;;359.03;324.00;;;;;;;;;;5033707;28;20484;-71
2021/03/05 13:58:04;;;;;;;443.33;401.67;;;;;;;;;;5037702;28;20852;-71
2021/03/05 14:00:30;;;;;;;243.13;212.90;;;;;;;;;;5034001;28;20374;-72
2021/03/05 14:02:56;;;;;;;0.70;0.50;;;;;;;;;;5041919;28;20604;-69
2021/03/05 14:05:22;;;;;;;0.80;0.70;;;;;;;;;;5036602;28;20211;-71
2021/03/05 14:07:47;;;;;;;0.80;0.60;;;;;;;;;;5035060;28;20379;-72
2021/03/05 14:10:13;;;;;;;0.70;0.50;;;;;;;;;;5035465;28;20506;-72
2021/03/05 14:12:39;;;;;;;0.80;0.50;;;;;;;;;;5029234;28;20423;-73
2021/03/05 14:15:06;;;;;;;6.23;0.70;;;;;;;;;;5035781;28;20496;-72
2021/03/05 14:17:32;;;;;;;3.63;0.77;;;;;;;;;;5036167;28;20890;-71
2021/03/05 14:19:58;;;;;;;0.70;0.47;;;;;;;;;;5036090;28;20459;-72
2021/03/05 14:22:24;;;;;;;0.80;0.50;;;;;;;;;;5040996;28;20468;-70
2021/03/05 14:24:50;;;;;;;0.80;0.50;;;;;;;;;;5035879;28;20891;-71
2021/03/05 14:27:16;;;;;;;0.80;0.53;;;;;;;;;;5028474;28;20469;-72
2021/03/05 14:29:42;;;;;;;2.40;0.50;;;;;;;;;;5029484;28;20829;-71
2021/03/05 14:32:08;;;;;;;1.03;0.60;;;;;;;;;;5047232;28;20381;-70
2021/03/05 14:34:35;;;;;;;1.30;0.60;;;;;;;;;;5028287;28;20200;-71
2021/03/05 14:37:01;;;;;;;0.80;0.60;;;;;;;;;;5034703;28;20918;-71
2021/03/05 14:39:27;;;;;;;0.73;0.53;;;;;;;;;;5041210;28;20546;-71
2021/03/05 14:41:53;;;;;;;1.67;0.93;;;;;;;;;;5038768;28;21031;-70
2021/03/05 14:44:19;;;;;;;1.47;0.83;;;;;;;;;;5032521;28;20420;-71
2021/03/05 14:46:44;;;;;;;3.80;1.20;;;;;;;;;;5038844;28;20406;-70
2021/03/05 14:49:10;;;;;;;0.70;0.50;;;;;;;;;;5035544;28;20428;-72
2021/03/05 14:51:36;;;;;;;0.70;0.50;;;;;;;;;;5040810;28;20522;-69
2021/03/05 14:54:02;;;;;;;0.90;0.70;;;;;;;;;;5028824;28;20419;-69
2021/03/05 14:56:28;;;;;;;0.80;0.67;;;;;;;;;;5029386;28;20423;-70
2021/03/05 14:58:54;;;;;;;1.20;1.00;;;;;;;;;;5028309;28;20414;-67
2021/03/05 15:01:20;;;;;;;6.23;0.83;;;;;;;;;;5034168;28;20417;-72
2021/03/05 15:03:46;;;;;;;0.83;0.50;;;;;;;;;;5047168;28;20574;-70
2021/03/05 15:06:12;;;;;;;0.90;0.60;;;;;;;;;;5052818;28;20403;-70
2021/03/05 15:08:38;;;;;;;0.90;0.60;;;;;;;;;;5042633;28;20444;-70
2021/03/05 15:11:04;;;;;;;0.70;0.50;;;;;;;;;;5041215;28;20386;-70
2021/03/05 15:13:30;;;;;;;3.07;1.07;;;;;;;;;;5040913;28;20495;-71
2021/03/05 15:15:56;;;;;;;0.80;0.60;;;;;;;;;;5033138;28;20499;-69
2021/03/05 15:18:22;;;;;;;0.70;0.50;;;;;;;;;;5031764;28;20398;-71
2021/03/05 15:20:48;;;;;;;0.70;0.50;;;;;;;;;;5041290;28;20549;-71
2021/03/05 15:23:14;;;;;;;0.97;0.50;;;;;;;;;;5043087;28;20553;-71
2021/03/05 15:25:40;;;;;;;0.70;0.50;;;;;;;;;;5032121;28;20546;-70
2021/03/05 15:28:06;;;;;;;0.70;0.50;;;;;;;;;;5032420;28;20870;-71
2021/03/05 15:30:32;;;;;;;0.90;0.50;;;;;;;;;;5031107;28;20507;-71
2021/03/05 15:32:58;;;;;;;3.27;0.70;;;;;;;;;;5032649;28;20415;-70
2021/03/05 15:35:24;;;;;;;0.90;0.70;;;;;;;;;;5038525;28;20434;-70
2021/03/05 15:37:50;;;;;;;0.70;0.50;;;;;;;;;;5037672;28;20471;-70
2021/03/05 15:40:16;;;;;;;18.20;1.10;;;;;;;;;;5055150;28;20422;-73
2021/03/05 15:42:43;;;;;;;1.10;0.60;;;;;;;;;;5048733;28;20463;-70
2021/03/05 15:45:09;;;;;;;0.70;0.40;;;;;;;;;;5042760;28;20506;-71
2021/03/05 15:47:36;;;;;;;0.70;0.40;;;;;;;;;;5039180;28;20557;-71